Kayenta, AZ

4:44 PM MDT on September 21, 2014 (GMT -0600)
Window Rock | Change Station
CLOSE
Current Station
Airport
Location: Window Rock,
Elevation: 6742 ft
Nearby Weather Stations

Elev 6742 ft 35.66 °N, 109.06 °W | Updated 7 hours ago

Partly Cloudy
Partly Cloudy
84 °F
Feels Like 84 °F
N
8
Wind Variable Wind from WSW
Gusts 9 mph

Today
High -- | Low -- °F
--% Chance of Precip.
Yesterday
High -- | Low -- °F
Precip. -- in
7:08 AM 7:19 PM
Waning Crescent, 5% visible
Pressure 30.35 in
Visibility 7.0 miles
Clouds Few 4000 ft
Mostly Cloudy 5500 ft
Overcast 8500 ft
Dew Point 54 °F
Humidity 35%
Rainfall 0.00 in
Snow Depth 0 in , 0 in
UV 1 out of 12
Pollen 6.30 out of 12
Air Quality Not available.
Flu Activity Not available.
SPECI KRQE 211531Z AUTO 10006KT 7SM -RA FEW040 BKN055 OVC085 14/11 A3035 RMK AO2 P0009 T01440111 TSNO

More Conditions Fewer Conditions

Pressure 30.35 in
Visibility 7.0 miles
Clouds Few 4000 ft
Mostly Cloudy 5500 ft
Overcast 8500 ft
Dew Point 54 °F
Humidity 35%
Rainfall 0.00 in
Snow Depth 0 in , 0 in
UV 1 out of 12
Pollen 6.30 out of 12
Air Quality Not available.
Flu Activity Not available.
SPECI KRQE 211531Z AUTO 10006KT 7SM -RA FEW040 BKN055 OVC085 14/11 A3035 RMK AO2 P0009 T01440111 TSNO

More Conditions Fewer Conditions

10-Day Weather Forecast

Almanac

Astronomy

Sep. 21, 2014 Rise Set
Actual Time 7:08 AM MDT 7:19 PM MDT
Civil Twilight 6:42 AM MDT 7:45 PM MDT
Nautical Twilight 6:12 AM MDT 8:15 PM MDT
Astronomical Twilight 5:41 AM MDT 8:45 PM MDT
Moon 4:48 AM MDT 5:55 PM MDT
Length of Visible Light 13h 02m
Length of Day
12h 11m
Tomorrow will be 2m 18s shorter.
Waning Crescent, 5% of the Moon is Illuminated
Today
Waning Crescent
Sep 24
New
Oct 1
First Quarter
Oct 8
Full
Oct 15
Last Quarter

Today's Extremes

State Highs State Lows

Community

WunderPhotos

Upload Photos

1,755,280 photos uploaded!

WunderBlogs® & News

Nearby

Snow Depth

Station Depth Elevation
Beaver Head 0 in 7990 ft
Workman Creek 0 in 6900 ft
Snowslide Canyon 0 in 9730 ft

Earthquake Activity

City Distance Mag. Time & Date
No recent earthquake activity has been reported nearby.
Minimum magnitude displayed is 2.5.

Coastal Water Temperatures

Place Temperature
No Stations Reporting

Nearby Weather Stations